createdAt,value
2024-05-09T06:29:22.106Z,92.61
2024-05-09T06:29:45.750Z,92.82
2024-05-09T06:30:48.303Z,93.39
2024-05-09T08:04:26.506Z,74.93
2024-05-09T10:32:19.592Z,39.61
2024-05-09T10:33:17.560Z,40.19
2024-05-09T10:36:01.116Z,37.55
2024-05-09T10:36:55.874Z,36.08
2024-05-09T10:38:09.073Z,35.83
2024-05-09T10:41:12.201Z,42.17
2024-05-09T10:42:12.186Z,43.16
2024-05-09T10:43:12.245Z,43.24
2024-05-09T10:44:13.911Z,40.34
2024-05-09T10:45:13.551Z,40.08
2024-05-09T10:46:13.338Z,42.19
2024-05-09T10:47:13.185Z,41.58
2024-05-09T10:48:12.194Z,43.05
2024-05-09T10:49:12.198Z,44.12
2024-05-09T10:50:22.003Z,39.37
2024-05-09T10:51:13.169Z,40.96
2024-05-09T10:52:12.134Z,42.75
2024-05-09T10:53:12.077Z,43.02
2024-05-09T10:54:12.096Z,42.35
2024-05-09T10:55:13.824Z,44.22
2024-05-09T10:56:14.298Z,43.23
2024-05-09T10:57:34.575Z,39.81
2024-05-09T10:58:12.235Z,41.97
2024-05-09T10:59:12.047Z,40.44
2024-05-09T11:00:19.012Z,41.31
2024-05-09T11:01:13.273Z,36.46
2024-05-09T11:02:12.397Z,39.17
2024-05-09T11:03:12.018Z,37.13
2024-05-09T11:04:12.068Z,38.32
2024-05-09T11:05:12.193Z,39.47
2024-05-09T11:06:12.000Z,41.53
2024-05-09T11:07:13.314Z,39.43
2024-05-09T11:08:13.203Z,38.82
2024-05-09T11:09:13.112Z,36.66
2024-05-09T11:10:14.815Z,38.62
2024-05-09T11:11:13.080Z,39.84
2024-05-09T11:12:13.232Z,40.14
2024-05-09T11:13:13.233Z,38.69
2024-05-09T11:14:13.107Z,40.26
2024-05-09T11:15:13.055Z,39.03
2024-05-09T11:16:13.144Z,39.98
2024-05-09T11:17:13.100Z,39.17
2024-05-09T11:18:13.118Z,38.26
2024-05-09T11:19:13.190Z,36.18
2024-05-09T11:20:19.622Z,36.28
2024-05-09T11:21:14.986Z,34.64
2024-05-09T11:22:13.026Z,35.55
2024-05-09T11:23:13.008Z,40.24
2024-05-09T11:24:12.995Z,39.31
2024-05-09T11:25:13.185Z,38.50
2024-05-09T11:26:12.988Z,36.30
2024-05-09T11:27:12.945Z,35.52
2024-05-09T11:28:13.135Z,37.15
2024-05-09T11:29:17.049Z,39.63
2024-05-09T11:30:20.837Z,38.71
2024-05-09T11:31:14.980Z,39.11
2024-05-09T11:32:12.927Z,37.39
2024-05-09T11:33:12.942Z,37.95
2024-05-09T11:34:12.931Z,34.68
2024-05-09T11:35:12.870Z,37.83
2024-05-09T11:36:12.894Z,36.83
2024-05-09T11:37:12.984Z,39.54
2024-05-09T11:38:12.877Z,38.75
2024-05-09T11:39:12.841Z,38.12
2024-05-09T11:40:21.030Z,39.95
2024-05-09T11:41:14.823Z,40.39
2024-05-09T11:42:12.881Z,40.62
2024-05-09T11:43:12.863Z,33.90
2024-05-09T11:44:12.793Z,37.85
2024-05-09T11:45:12.755Z,34.50
2024-05-09T11:46:12.912Z,36.51
2024-05-09T11:47:12.865Z,37.00
2024-05-09T11:48:12.811Z,38.98
2024-05-09T11:49:12.926Z,40.74
2024-05-09T11:50:22.345Z,35.68
2024-05-09T11:51:14.740Z,37.76
2024-05-09T11:52:12.830Z,39.14
2024-05-09T11:53:12.743Z,36.79
2024-05-09T11:54:12.676Z,36.19
2024-05-09T11:55:12.844Z,39.08
2024-05-09T11:56:15.652Z,39.06
2024-05-09T11:57:28.166Z,39.04
2024-05-09T12:07:24.097Z,38.03
2024-05-09T12:08:19.763Z,37.59
2024-05-09T12:09:19.773Z,39.69
2024-05-09T12:10:22.636Z,40.38
2024-05-09T12:11:20.778Z,39.63
2024-05-09T12:12:19.764Z,40.22
2024-05-09T12:13:19.994Z,39.95
2024-05-09T12:14:19.725Z,39.07
2024-05-09T12:15:19.721Z,40.28
2024-05-09T12:16:20.075Z,42.75
2024-05-09T12:17:19.707Z,40.76
2024-05-09T12:18:19.735Z,43.05
2024-05-09T12:19:19.731Z,42.51
2024-05-09T12:20:28.354Z,40.01
2024-05-09T12:21:20.652Z,38.42
2024-05-09T12:22:19.674Z,42.58
2024-05-09T12:23:19.708Z,38.62
2024-05-09T12:24:19.651Z,38.56
2024-05-09T12:25:19.676Z,38.47
2024-05-09T12:26:19.610Z,39.67
2024-05-09T12:27:19.598Z,39.53
2024-05-09T12:28:19.831Z,38.95
2024-05-09T12:29:19.598Z,38.56
2024-05-09T12:30:32.178Z,40.18
2024-05-09T12:31:20.595Z,41.00
2024-05-09T12:32:19.605Z,41.77
2024-05-09T12:33:19.745Z,42.57
2024-05-09T12:34:19.630Z,43.35
2024-05-09T12:35:19.505Z,43.44
2024-05-09T12:36:19.540Z,40.76
2024-05-09T12:37:19.564Z,38.49
2024-05-09T12:38:19.529Z,39.69
2024-05-09T12:39:19.511Z,38.61
2024-05-09T12:40:30.624Z,39.25
2024-05-09T12:41:20.456Z,42.25
2024-05-09T12:42:27.036Z,43.03
2024-05-09T12:43:20.572Z,39.12
2024-05-09T12:44:19.431Z,39.01
2024-05-09T12:45:19.427Z,39.89
2024-05-09T12:46:19.492Z,36.47
2024-05-09T12:47:19.423Z,38.54
2024-05-09T12:48:19.540Z,39.11
2024-05-09T12:49:20.227Z,37.90
2024-05-09T12:50:28.920Z,38.18
2024-05-09T12:51:20.356Z,37.90
2024-05-09T12:52:19.380Z,36.63
2024-05-09T12:53:19.371Z,40.01
2024-05-09T12:54:19.329Z,38.62
2024-05-09T12:55:19.362Z,37.94
2024-05-09T12:56:19.317Z,38.16
2024-05-09T12:57:19.332Z,41.74
2024-05-09T12:58:19.539Z,40.76
2024-05-09T12:59:19.288Z,39.48
2024-05-09T13:00:24.137Z,41.00
2024-05-09T13:01:20.376Z,40.40
2024-05-09T13:02:19.394Z,40.32
2024-05-09T13:03:19.470Z,39.90
2024-05-09T13:04:19.570Z,40.10
2024-05-09T13:05:19.356Z,40.62
2024-05-09T13:06:19.212Z,40.12
2024-05-09T13:07:19.406Z,41.20
2024-05-09T13:08:19.216Z,40.44
2024-05-09T13:09:19.234Z,38.45
2024-05-09T13:10:28.736Z,36.66
2024-05-09T13:11:20.255Z,39.33
2024-05-09T13:12:20.092Z,36.45
2024-05-09T13:13:19.615Z,39.81
2024-05-09T13:14:19.179Z,37.88
2024-05-09T13:15:19.130Z,36.86
2024-05-09T13:16:19.182Z,36.66
2024-05-09T13:17:19.167Z,39.22
2024-05-09T13:18:19.224Z,38.51
2024-05-09T13:19:19.168Z,36.84
2024-05-09T13:20:26.333Z,37.12
2024-05-09T13:21:20.107Z,35.07
2024-05-09T13:22:19.094Z,38.34
2024-05-09T13:23:19.047Z,39.29
2024-05-09T13:24:19.055Z,39.65
2024-05-09T13:25:19.103Z,36.65
2024-05-09T13:26:19.040Z,38.96
2024-05-09T13:27:19.042Z,36.68
2024-05-09T13:28:19.182Z,35.56
2024-05-09T13:29:18.995Z,33.77
2024-05-09T13:30:26.378Z,35.43
2024-05-09T13:31:20.023Z,35.13
2024-05-09T13:32:18.991Z,33.58
2024-05-09T13:33:19.039Z,33.67
2024-05-09T13:34:19.056Z,33.59
2024-05-09T13:35:18.943Z,33.79
2024-05-09T13:36:18.917Z,31.79
2024-05-09T13:37:18.966Z,34.66
2024-05-09T13:38:19.361Z,36.48
2024-05-09T13:39:18.890Z,39.37
2024-05-09T13:41:18.874Z,36.04
2024-05-09T13:42:18.857Z,36.75
2024-05-09T13:43:19.161Z,36.87
2024-05-09T13:44:18.841Z,38.35
2024-05-09T13:45:18.878Z,40.12
2024-05-09T13:46:18.959Z,39.33
2024-05-09T13:47:18.994Z,39.61
2024-05-09T13:48:19.073Z,36.96
2024-05-09T13:49:18.884Z,39.07
2024-05-09T13:50:27.995Z,38.97
2024-05-09T13:51:20.953Z,41.06
2024-05-09T13:52:19.996Z,39.95
2024-05-09T13:53:19.953Z,39.37
2024-05-09T13:54:22.374Z,37.90
2024-05-09T13:55:21.048Z,39.69
2024-05-09T13:56:19.934Z,39.78
2024-05-09T13:57:19.899Z,39.21
2024-05-09T13:58:19.970Z,39.09
2024-05-09T13:59:19.926Z,40.56
2024-05-09T14:00:31.922Z,41.16
2024-05-09T14:01:21.926Z,40.24
2024-05-09T14:02:20.086Z,39.25
2024-05-09T14:03:20.916Z,38.43
2024-05-09T14:04:20.088Z,38.73
2024-05-09T14:05:20.001Z,39.01
2024-05-09T14:06:19.795Z,37.52
2024-05-09T14:07:19.884Z,37.90
2024-05-09T14:08:20.513Z,36.91
2024-05-09T14:09:19.786Z,37.79
2024-05-09T14:10:25.882Z,37.90
2024-05-09T14:11:21.810Z,38.00
2024-05-09T14:12:19.799Z,35.36
2024-05-09T14:13:19.993Z,37.08
2024-05-09T14:14:19.738Z,37.79
2024-05-09T14:15:19.731Z,38.99
2024-05-09T14:16:19.801Z,38.28
2024-05-09T14:17:19.812Z,36.47
2024-05-09T14:18:19.752Z,37.10
2024-05-09T14:19:19.782Z,39.07
2024-05-09T14:20:28.601Z,37.79
2024-05-09T14:21:21.762Z,39.27
2024-05-09T14:22:19.713Z,36.78
2024-05-09T14:23:19.669Z,43.10
2024-05-09T14:24:19.637Z,41.00
2024-05-09T14:25:19.688Z,38.00
2024-05-09T14:26:19.632Z,39.25
2024-05-09T14:27:19.671Z,39.23
2024-05-09T14:28:19.818Z,35.97
2024-05-09T14:29:19.624Z,35.64
2024-05-09T14:30:26.299Z,39.63
2024-05-09T14:31:21.663Z,36.57
2024-05-09T14:32:19.658Z,42.51
2024-05-09T14:33:19.648Z,39.21
2024-05-09T14:34:19.782Z,35.72
2024-05-09T14:35:19.665Z,37.15
2024-05-09T14:36:19.564Z,40.90
2024-05-09T14:37:19.572Z,39.19
2024-05-09T14:38:19.542Z,35.22
2024-05-09T14:39:19.525Z,38.60
2024-05-09T14:40:30.902Z,39.28
2024-05-09T14:41:21.496Z,39.65
2024-05-09T14:42:19.490Z,39.22
2024-05-09T14:43:19.540Z,40.70
2024-05-09T14:44:19.469Z,38.78
2024-05-09T14:45:19.464Z,38.86
2024-05-09T14:46:19.582Z,35.14
2024-05-09T14:47:19.502Z,36.24
2024-05-09T14:48:19.565Z,34.58
2024-05-09T14:49:19.609Z,36.77
2024-05-09T14:50:27.227Z,36.00
2024-05-09T14:51:21.428Z,35.72
2024-05-09T14:52:19.430Z,36.35
2024-05-09T14:53:19.389Z,36.66
2024-05-09T14:54:19.365Z,36.35
2024-05-09T14:55:19.430Z,38.04
2024-05-09T14:56:19.341Z,39.13
2024-05-09T14:57:19.360Z,38.14
2024-05-09T14:58:19.387Z,40.80
2024-05-09T14:59:19.356Z,37.13
2024-05-09T15:00:26.241Z,39.90
2024-05-09T15:01:21.385Z,37.62
2024-05-09T15:02:19.527Z,40.48
2024-05-09T15:03:19.930Z,39.19
2024-05-09T15:04:19.642Z,40.17
2024-05-09T15:05:19.373Z,39.55
2024-05-09T15:06:19.358Z,36.58
2024-05-09T15:07:19.318Z,36.98
2024-05-09T15:08:19.328Z,38.07
2024-05-09T15:09:19.235Z,39.06
2024-05-09T15:10:26.903Z,37.09
2024-05-09T15:11:21.282Z,36.90
2024-05-09T15:12:19.214Z,38.98
2024-05-09T15:13:19.361Z,40.05
2024-05-09T15:14:19.235Z,39.57
2024-05-09T15:15:19.197Z,37.96
2024-05-09T15:16:19.217Z,37.77
2024-05-09T15:17:19.139Z,39.45
2024-05-09T15:18:19.400Z,38.05
2024-05-09T15:19:19.295Z,39.55
2024-05-09T15:20:26.876Z,37.07
2024-05-09T15:21:21.142Z,39.37
2024-05-09T15:22:19.186Z,36.30
2024-05-09T15:23:19.062Z,37.60
2024-05-09T15:24:19.092Z,39.21
2024-05-09T15:25:19.204Z,36.87
2024-05-09T15:26:20.076Z,39.39
2024-05-09T15:27:19.115Z,39.09
2024-05-09T15:28:19.122Z,39.50
2024-05-09T15:29:19.063Z,40.28
2024-05-09T15:30:24.489Z,41.58
2024-05-09T15:31:21.060Z,41.46
2024-05-09T15:32:19.025Z,39.95
2024-05-09T15:33:19.103Z,37.98
2024-05-09T15:34:19.084Z,39.09
2024-05-09T15:35:19.009Z,39.69
2024-05-09T15:36:18.999Z,41.97
2024-05-09T15:37:19.213Z,40.08
2024-05-09T15:38:18.968Z,39.27
2024-05-09T15:39:18.944Z,39.25
2024-05-09T15:40:26.557Z,42.33
2024-05-09T15:41:20.947Z,37.28
2024-05-09T15:42:18.961Z,38.89
2024-05-09T15:43:18.982Z,39.29
2024-05-09T15:44:18.915Z,41.55
2024-05-09T15:45:18.872Z,42.72
2024-05-09T15:46:18.945Z,39.75
2024-05-09T15:47:18.900Z,39.76
2024-05-09T15:48:19.118Z,38.35
2024-05-09T15:49:19.090Z,39.29
2024-05-09T15:50:38.797Z,37.21
2024-05-09T15:52:37.849Z,39.92
2024-05-09T17:08:47.721Z,46.62
2024-05-09T17:09:47.748Z,43.53
2024-05-09T17:10:47.903Z,41.93
2024-05-09T17:11:47.756Z,44.93
2024-05-09T17:12:47.770Z,41.74
2024-05-09T17:13:48.343Z,43.33
2024-05-09T17:14:47.679Z,42.63
2024-05-09T17:15:47.810Z,45.63
2024-05-09T17:16:47.784Z,43.83
2024-05-09T17:17:47.721Z,42.33
2024-05-09T17:18:47.660Z,43.63
2024-05-09T17:19:47.605Z,44.93
2024-05-09T17:20:47.643Z,44.03
2024-05-09T17:21:47.666Z,45.63
2024-05-09T17:22:47.594Z,44.95
2024-05-09T17:23:47.573Z,42.63
2024-05-09T17:24:47.599Z,43.95
2024-05-09T17:25:47.631Z,45.05
2024-05-09T17:26:47.539Z,44.97
2024-05-09T17:27:47.576Z,43.77
2024-05-09T17:28:47.522Z,42.87
2024-05-09T17:29:47.523Z,44.97
2024-05-09T17:30:47.513Z,43.19
2024-05-09T17:31:47.498Z,44.21
2024-05-09T17:32:47.520Z,45.12
2024-05-09T17:33:47.618Z,47.61
2024-05-09T17:34:47.516Z,47.52
2024-05-09T17:35:47.550Z,47.34
2024-05-09T17:36:47.523Z,49.24
2024-05-09T17:37:47.416Z,49.74
2024-05-09T17:38:47.412Z,49.64
2024-05-09T17:39:47.489Z,49.76
2024-05-09T17:40:47.577Z,50.46
2024-05-09T17:41:47.413Z,49.96
2024-05-09T17:42:47.414Z,49.58
2024-05-09T17:43:47.353Z,50.19
2024-05-09T17:44:47.343Z,49.69
2024-05-09T17:45:47.406Z,50.19
2024-05-09T17:46:47.318Z,51.09
2024-05-09T17:47:47.381Z,51.72
2024-05-09T17:48:47.431Z,51.59
2024-05-09T17:49:47.389Z,51.72
2024-05-09T17:50:47.299Z,52.42
2024-05-09T17:51:47.302Z,50.71
2024-05-09T17:52:47.259Z,51.04
2024-05-09T17:53:47.259Z,51.44
2024-05-09T17:54:47.297Z,51.14
2024-05-09T17:55:47.262Z,51.04
2024-05-09T17:56:47.227Z,51.64
2024-05-09T17:57:48.398Z,51.44
2024-05-09T17:58:48.378Z,51.14
2024-05-09T17:59:48.394Z,51.26
2024-05-09T18:00:48.472Z,51.26
2024-05-09T18:01:48.467Z,53.77
2024-05-09T18:02:48.388Z,52.67
2024-05-09T18:03:48.544Z,51.49
2024-05-09T18:04:48.412Z,53.00
2024-05-09T18:05:48.363Z,59.25
2024-05-09T18:06:48.312Z,60.05
2024-05-09T18:07:48.307Z,62.08
2024-05-09T18:08:48.278Z,63.12
2024-05-09T18:09:48.316Z,66.10
2024-05-09T18:10:48.266Z,65.53
2024-05-09T18:11:48.288Z,64.75
2024-05-09T18:12:48.277Z,65.49
2024-05-09T18:13:48.244Z,66.90
2024-05-09T18:14:48.225Z,65.99
2024-05-09T18:15:48.262Z,64.81
2024-05-09T18:16:48.220Z,66.73
2024-05-09T18:17:48.259Z,67.67
2024-05-09T18:18:48.335Z,67.77
2024-05-09T18:19:48.184Z,66.79
2024-05-09T18:20:48.235Z,67.80
2024-05-09T18:21:48.156Z,67.60
2024-05-09T18:22:49.127Z,66.69
2024-05-09T18:23:48.158Z,65.58
2024-05-09T18:24:48.180Z,66.19
2024-05-09T18:25:48.402Z,64.17
2024-05-09T18:26:48.132Z,65.28
2024-05-09T18:27:48.119Z,65.48
2024-05-09T18:28:48.080Z,65.78
2024-05-09T18:29:48.099Z,65.48
2024-05-09T18:30:48.144Z,67.53
2024-05-09T18:31:48.140Z,67.86
2024-05-09T18:32:48.347Z,69.98
2024-05-09T18:33:48.243Z,70.32
2024-05-09T18:34:48.173Z,71.57
2024-05-09T18:35:48.069Z,73.52
2024-05-09T18:36:48.135Z,71.87
2024-05-09T18:37:49.383Z,73.02
2024-05-09T18:38:53.498Z,72.21
2024-05-09T18:39:49.035Z,70.69
2024-05-09T18:40:49.393Z,70.62
2024-05-09T18:41:48.007Z,70.86
2024-05-09T18:42:48.279Z,71.26
2024-05-09T18:43:50.395Z,71.88
2024-05-09T18:44:48.976Z,72.17
2024-05-09T18:45:48.304Z,71.06
2024-05-09T18:46:48.013Z,70.56
2024-05-09T18:47:48.223Z,70.56
2024-05-09T18:48:48.176Z,70.36
2024-05-09T18:49:48.041Z,71.09
2024-05-09T18:50:48.120Z,71.30
2024-05-09T18:51:48.064Z,72.11
2024-05-09T18:52:47.899Z,72.31
2024-05-09T18:53:47.944Z,72.55
2024-05-09T18:54:48.026Z,71.94
2024-05-09T18:55:47.873Z,71.23
2024-05-09T18:56:47.986Z,72.24
2024-05-09T18:57:47.911Z,71.94
2024-05-09T18:58:47.859Z,71.73
2024-05-09T18:59:47.832Z,70.93
2024-05-09T19:00:50.362Z,71.64
2024-05-09T19:01:47.958Z,73.70
2024-05-09T19:02:48.059Z,74.44
2024-05-09T19:03:47.973Z,75.43
2024-05-09T19:04:48.011Z,76.24
2024-05-09T19:05:48.088Z,76.34
2024-05-09T19:06:47.884Z,76.58
2024-05-09T19:07:47.841Z,76.28
2024-05-09T19:08:47.921Z,76.21
2024-05-09T19:09:47.791Z,76.01
2024-05-09T19:10:47.895Z,76.10
2024-05-09T19:11:47.917Z,75.97
2024-05-09T19:12:47.737Z,75.56
2024-05-09T19:13:47.712Z,76.10
2024-05-09T19:14:47.811Z,75.40
2024-05-09T19:15:47.684Z,74.88
2024-05-09T19:16:47.652Z,74.48
2024-05-09T19:17:47.744Z,74.34
2024-05-09T19:18:47.744Z,74.18
2024-05-09T19:19:47.715Z,74.07
2024-05-09T19:20:47.662Z,75.09
2024-05-09T19:21:47.579Z,77.02
2024-05-09T19:22:47.550Z,76.72
2024-05-09T19:23:52.115Z,76.04
2024-05-09T19:24:49.440Z,75.33
2024-05-09T19:25:47.584Z,76.25
2024-05-09T19:26:47.519Z,77.97
2024-05-09T19:27:47.587Z,77.16
2024-05-09T19:28:47.570Z,76.65
2024-05-09T19:29:47.511Z,77.26
2024-05-09T19:30:47.564Z,76.65
2024-05-09T19:31:47.541Z,76.04
2024-05-09T19:32:47.674Z,76.14
2024-05-09T19:33:47.517Z,75.94
2024-05-09T19:34:47.474Z,75.94
2024-05-09T19:35:47.428Z,75.94
2024-05-09T19:36:47.427Z,75.77
2024-05-09T19:37:47.415Z,76.18
2024-05-09T19:38:47.439Z,76.28
2024-05-09T19:39:47.429Z,75.87
2024-05-09T19:40:47.649Z,77.50
2024-05-09T19:41:47.383Z,77.84
2024-05-09T19:42:47.420Z,76.68
2024-05-09T19:43:47.364Z,76.72
2024-05-09T19:44:47.406Z,77.23
2024-05-09T19:45:47.427Z,76.62
2024-05-09T19:46:47.317Z,76.82
2024-05-09T19:47:47.501Z,76.76
2024-05-09T19:48:47.408Z,79.30
2024-05-09T19:49:47.300Z,79.85
2024-05-09T19:50:48.344Z,80.02
2024-05-09T19:51:47.290Z,79.91
2024-05-09T19:52:47.283Z,79.50
2024-05-09T19:53:47.270Z,79.64
2024-05-09T19:54:47.274Z,78.19
2024-05-09T19:55:47.294Z,78.80
2024-05-09T19:56:47.236Z,78.59
2024-05-09T19:57:48.316Z,77.87
2024-05-09T19:58:47.260Z,79.54
2024-05-09T19:59:47.176Z,79.64
2024-05-09T20:00:47.262Z,79.54
2024-05-09T20:01:47.344Z,79.44
2024-05-09T20:02:47.362Z,80.60
2024-05-09T20:03:47.340Z,79.27
2024-05-09T20:04:47.189Z,79.38
2024-05-09T20:05:47.638Z,80.40
2024-05-09T20:06:47.166Z,80.09
2024-05-09T20:07:47.129Z,79.38
2024-05-09T20:08:47.207Z,79.38
2024-05-09T20:09:47.150Z,79.38
2024-05-09T20:10:47.331Z,79.48
2024-05-09T20:11:47.446Z,81.76
2024-05-09T20:12:47.077Z,82.17
2024-05-09T20:13:47.066Z,82.21
2024-05-09T20:14:47.091Z,83.12
2024-05-09T20:15:47.125Z,83.37
2024-05-09T20:16:47.020Z,83.06
2024-05-09T20:17:47.263Z,81.84
2024-05-09T20:18:47.196Z,81.73
2024-05-09T20:19:47.089Z,81.94
2024-05-09T20:20:48.945Z,81.94
2024-05-09T20:21:47.012Z,82.55
2024-05-09T20:22:47.024Z,84.18
2024-05-09T20:23:46.949Z,83.92
2024-05-09T20:24:46.974Z,82.65
2024-05-09T20:25:47.004Z,82.75
2024-05-09T20:26:46.969Z,82.14
2024-05-09T20:27:46.960Z,80.91
2024-05-09T20:28:46.994Z,81.73
2024-05-09T20:29:46.948Z,83.26
2024-05-09T20:37:22.810Z,81.02
2024-05-09T20:38:17.486Z,82.45
2024-05-09T20:39:17.537Z,83.06
2024-05-09T20:40:25.495Z,84.01
2024-05-09T20:41:18.490Z,83.92
2024-05-09T20:42:40.484Z,83.20
2024-05-09T20:43:17.593Z,83.51
2024-05-09T20:44:17.455Z,82.79
2024-05-09T20:45:17.453Z,82.39
2024-05-09T20:46:17.460Z,82.08
2024-05-09T20:47:17.391Z,81.98
2024-05-09T20:48:17.528Z,81.77
2024-05-09T20:49:17.794Z,82.18
2024-05-09T20:50:27.573Z,81.87
2024-05-09T20:51:18.378Z,81.87
2024-05-09T20:52:17.395Z,81.98
2024-05-09T20:53:17.351Z,82.22
2024-05-09T20:54:17.361Z,81.81
2024-05-09T20:55:17.369Z,82.18
2024-05-09T20:56:17.313Z,81.37
2024-05-09T20:57:17.297Z,81.51
2024-05-09T20:58:17.389Z,83.85
2024-05-09T20:59:17.296Z,85.38
2024-05-09T21:00:19.327Z,85.38
2024-05-09T21:01:18.345Z,83.65
2024-05-09T21:02:17.496Z,82.93
2024-05-09T21:03:17.938Z,83.04
2024-05-09T21:04:17.423Z,83.24
2024-05-09T21:05:17.378Z,82.73
2024-05-09T21:06:17.251Z,82.42
2024-05-09T21:07:17.338Z,82.42
2024-05-09T21:08:17.248Z,81.91
2024-05-09T21:09:17.202Z,82.73
2024-05-09T21:10:22.386Z,82.42
2024-05-09T21:11:18.200Z,82.42
2024-05-09T21:12:17.218Z,82.22
2024-05-09T21:13:17.248Z,82.12
2024-05-09T21:14:17.149Z,82.32
2024-05-09T21:15:17.123Z,82.42
2024-05-09T21:16:17.255Z,82.93
2024-05-09T21:17:17.180Z,82.83
2024-05-09T21:18:17.105Z,82.83
2024-05-09T21:19:17.156Z,82.46
2024-05-09T21:20:20.713Z,82.77
2024-05-09T21:21:18.077Z,82.36
2024-05-09T21:22:17.202Z,83.38
2024-05-09T21:23:17.086Z,82.36
2024-05-09T21:24:17.026Z,84.30
2024-05-09T21:25:17.196Z,84.50
2024-05-09T21:26:17.018Z,84.09
2024-05-09T21:27:17.011Z,84.50
2024-05-09T21:28:17.087Z,84.61
2024-05-09T21:29:16.978Z,84.41
2024-05-09T21:30:26.714Z,84.00
2024-05-09T21:31:18.025Z,82.91
2024-05-09T21:32:17.017Z,83.22
2024-05-09T21:33:17.007Z,83.73
2024-05-09T21:34:16.995Z,83.83
2024-05-09T21:35:16.944Z,84.03
2024-05-09T21:36:16.949Z,85.81
2024-05-09T21:37:17.020Z,86.63
2024-05-09T21:38:16.891Z,87.14
2024-05-09T21:39:16.907Z,86.53
2024-05-09T21:41:53.743Z,85.40
2024-05-09T21:42:53.640Z,85.03
2024-05-09T21:43:53.606Z,84.79
2024-05-09T21:44:53.589Z,84.79
2024-05-09T21:45:55.194Z,84.63
2024-05-09T21:46:53.574Z,84.89
2024-05-09T21:47:53.696Z,84.31
2024-05-09T21:48:53.677Z,84.48
2024-05-09T21:49:53.541Z,84.58
2024-05-09T21:50:53.523Z,85.10
2024-05-09T21:51:53.538Z,84.79
2024-05-09T21:52:53.503Z,85.20
2024-05-09T21:53:53.550Z,85.34
2024-05-09T21:54:53.515Z,85.64
2024-05-09T21:55:53.472Z,85.96
2024-05-09T21:56:53.460Z,85.85
2024-05-09T21:57:53.466Z,85.85
2024-05-09T21:58:53.451Z,86.57
2024-05-09T21:59:53.423Z,87.59
2024-05-09T22:00:53.479Z,87.79
2024-05-09T22:01:53.476Z,88.65
2024-05-09T22:02:53.441Z,88.24
2024-05-09T22:03:53.491Z,88.76
2024-05-09T22:04:53.461Z,87.18
2024-05-09T22:05:53.366Z,86.61
2024-05-09T22:06:53.374Z,86.51
2024-05-09T22:07:53.361Z,86.30
2024-05-09T22:08:53.350Z,87.53
2024-05-09T22:09:53.372Z,88.45
2024-05-09T22:10:53.476Z,88.59
2024-05-09T22:11:54.491Z,88.18
2024-05-09T22:12:53.349Z,88.45
2024-05-09T22:13:53.297Z,87.12
2024-05-09T22:14:53.276Z,87.43
2024-05-09T22:15:53.291Z,86.34
2024-05-09T22:16:53.280Z,85.89
2024-05-09T22:17:54.303Z,86.40
2024-05-09T22:18:53.390Z,86.44
2024-05-09T22:19:53.233Z,86.34
2024-05-09T22:20:53.218Z,86.24
2024-05-09T22:21:53.298Z,86.75
2024-05-09T22:22:53.215Z,86.71
2024-05-09T22:23:53.222Z,86.71
2024-05-09T22:24:53.194Z,87.22
2024-05-09T22:25:53.186Z,88.14
2024-05-09T22:26:53.167Z,87.43
2024-05-09T22:27:53.188Z,87.53
2024-05-09T22:28:53.138Z,87.63
2024-05-09T22:29:53.128Z,88.08
2024-05-09T22:30:53.134Z,87.47
2024-05-09T22:31:53.111Z,88.70
2024-05-09T22:32:53.258Z,88.18
2024-05-09T22:33:53.394Z,88.49
2024-05-09T22:34:53.145Z,88.80
2024-05-09T22:35:53.070Z,88.84
2024-05-09T22:36:53.095Z,88.43
2024-05-09T22:37:53.043Z,87.47
2024-05-09T22:38:53.035Z,87.61
2024-05-09T22:39:53.031Z,87.37
2024-05-09T22:40:53.268Z,86.96
2024-05-09T22:41:53.004Z,86.85
2024-05-09T22:42:53.004Z,86.85
2024-05-09T22:43:52.966Z,86.65
2024-05-09T22:44:52.971Z,85.93
2024-05-09T22:45:53.331Z,86.04
2024-05-09T22:46:52.971Z,85.66
2024-05-09T22:47:53.038Z,85.87
2024-05-09T22:48:53.021Z,86.07
2024-05-09T22:49:52.969Z,86.38
2024-05-09T22:50:52.936Z,85.72
2024-05-09T22:51:52.941Z,85.87
2024-05-09T22:52:52.880Z,86.38
2024-05-09T22:53:52.870Z,85.83
2024-05-09T22:54:52.900Z,85.25
2024-05-09T22:55:52.857Z,85.42
2024-05-09T22:56:52.840Z,86.07
2024-05-09T22:57:52.903Z,86.24
2024-05-09T22:58:52.817Z,86.48
2024-05-09T22:59:52.845Z,86.07
2024-05-09T23:00:53.095Z,85.93
2024-05-09T23:01:52.891Z,85.46
2024-05-09T23:02:52.836Z,85.36
2024-05-09T23:03:52.887Z,85.36
2024-05-09T23:04:52.844Z,85.46
2024-05-09T23:05:52.764Z,85.25
2024-05-09T23:06:52.762Z,85.66
2024-05-09T23:07:52.728Z,85.66
2024-05-09T23:08:52.762Z,85.36
2024-05-09T23:09:52.765Z,85.36
2024-05-09T23:10:52.748Z,85.36
2024-05-09T23:11:52.743Z,85.80
2024-05-09T23:12:52.756Z,86.11
2024-05-09T23:13:52.689Z,86.11
2024-05-09T23:14:52.661Z,86.63
2024-05-09T23:15:52.715Z,86.22
2024-05-09T23:16:52.693Z,85.80
2024-05-09T23:17:52.935Z,87.65
2024-05-09T23:18:52.686Z,87.45
2024-05-09T23:19:52.631Z,87.65
2024-05-09T23:20:52.592Z,87.65
2024-05-09T23:21:52.620Z,87.49
2024-05-09T23:22:52.572Z,87.49
2024-05-09T23:23:52.614Z,86.98
2024-05-09T23:24:52.587Z,87.38
2024-05-09T23:25:52.538Z,86.77
2024-05-09T23:26:52.540Z,87.49
2024-05-09T23:27:52.624Z,86.98
2024-05-09T23:28:52.532Z,87.08
2024-05-09T23:29:53.711Z,86.66
2024-05-09T23:30:53.692Z,86.05
2024-05-09T23:31:53.680Z,85.95
2024-05-09T23:32:53.792Z,85.95
2024-05-09T23:33:53.882Z,86.50
2024-05-09T23:34:53.742Z,85.99
2024-05-09T23:35:53.635Z,86.09
2024-05-09T23:36:53.667Z,86.36
2024-05-09T23:37:53.738Z,86.09
2024-05-09T23:38:53.827Z,86.05
2024-05-09T23:39:53.817Z,86.19
2024-05-09T23:40:53.790Z,86.30
2024-05-09T23:41:53.817Z,85.99
2024-05-09T23:42:53.787Z,86.19
2024-05-09T23:43:53.643Z,86.30
2024-05-09T23:44:53.742Z,86.40
2024-05-09T23:45:53.868Z,85.47
2024-05-09T23:46:53.836Z,85.47
2024-05-09T23:47:54.162Z,85.41
2024-05-09T23:48:53.748Z,86.13
2024-05-09T23:49:53.599Z,86.44
2024-05-09T23:50:53.725Z,86.54
2024-05-09T23:51:53.833Z,86.33
2024-05-09T23:52:53.759Z,86.03
2024-05-09T23:53:53.666Z,86.13
2024-05-09T23:54:53.937Z,87.46
2024-05-09T23:55:53.785Z,86.95
2024-05-09T23:56:53.531Z,86.85
2024-05-09T23:57:53.543Z,86.54
2024-05-09T23:58:53.533Z,86.58
2024-05-09T23:59:53.522Z,86.58
